createdAt,value
2024-01-26T00:01:43.269Z,102696.52
2024-01-26T00:04:11.552Z,102693.12
2024-01-26T00:06:39.935Z,102690.84
2024-01-26T00:09:15.024Z,102688.28
2024-01-26T00:11:43.877Z,102694.23
2024-01-26T00:14:12.156Z,102693.38
2024-01-26T00:16:40.202Z,102687.37
2024-01-26T00:19:08.621Z,102687.66
2024-01-26T00:21:36.706Z,102684.23
2024-01-26T00:24:05.143Z,102693.35
2024-01-26T00:26:33.207Z,102690.51
2024-01-26T00:29:01.296Z,102694.76
2024-01-26T00:31:29.336Z,102687.34
2024-01-26T00:33:57.489Z,102695.02
2024-01-26T00:36:25.525Z,102695.31
2024-01-26T00:38:53.503Z,102701.30
2024-01-26T00:41:21.543Z,102714.70
2024-01-26T00:43:49.647Z,102696.45
2024-01-26T00:46:17.682Z,102692.50
2024-01-26T00:48:45.792Z,102701.36
2024-01-26T00:51:14.008Z,102700.77
2024-01-26T00:53:42.032Z,102699.34
2024-01-26T00:56:10.117Z,102697.08
2024-01-26T00:58:38.222Z,102694.23
2024-01-26T01:01:06.553Z,102692.53
2024-01-26T01:03:34.669Z,102697.11
2024-01-26T01:06:02.954Z,102702.21
2024-01-26T01:08:31.388Z,102711.59
2024-01-26T01:10:59.407Z,102702.80
2024-01-26T01:13:27.568Z,102701.10
2024-01-26T01:15:55.590Z,102714.77
2024-01-26T01:18:23.851Z,102717.61
2024-01-26T01:20:52.006Z,102709.93
2024-01-26T01:23:20.213Z,102703.39
2024-01-26T01:25:48.260Z,102711.63
2024-01-26T01:28:16.303Z,102716.47
2024-01-26T01:30:44.375Z,102725.00
2024-01-26T01:33:12.528Z,102720.16
2024-01-26T01:35:40.688Z,102717.32
2024-01-26T01:38:08.800Z,102715.06
2024-01-26T01:43:10.164Z,102717.87
2024-01-26T01:45:49.844Z,102715.03
2024-01-26T01:48:22.770Z,102716.47
2024-01-26T01:50:51.303Z,102723.01
2024-01-26T01:53:24.396Z,102724.41
2024-01-26T01:55:58.842Z,102708.20
2024-01-26T01:58:30.323Z,102710.19
2024-01-26T02:01:03.058Z,102712.18
2024-01-26T02:03:32.310Z,102710.19
2024-01-26T02:06:05.786Z,102712.77
2024-01-26T02:08:39.957Z,102703.39
2024-01-26T02:11:12.913Z,102708.78
2024-01-26T02:13:43.301Z,102711.07
2024-01-26T02:16:14.597Z,102709.38
2024-01-26T02:18:50.120Z,102709.63
2024-01-26T02:21:21.145Z,102719.60
2024-01-26T02:23:54.211Z,102719.05
2024-01-26T02:26:31.659Z,102718.46
2024-01-26T02:28:59.889Z,102723.30
2024-01-26T02:31:31.588Z,102732.42
2024-01-26T02:34:02.426Z,102734.94
2024-01-26T02:36:30.851Z,102723.89
2024-01-26T02:39:01.975Z,102725.03
2024-01-26T02:41:32.249Z,102721.34
2024-01-26T02:44:04.337Z,102721.30
2024-01-26T02:46:32.519Z,102719.34
2024-01-26T02:49:00.719Z,102727.84
2024-01-26T02:51:35.107Z,102735.53
2024-01-26T02:54:15.043Z,102732.13
2024-01-26T02:56:46.121Z,102736.38
2024-01-26T02:59:14.167Z,102731.28
2024-01-26T03:01:49.349Z,102738.37
2024-01-26T03:04:29.280Z,102731.54
2024-01-26T03:07:00.562Z,102730.43
2024-01-26T03:09:36.950Z,102731.84
2024-01-26T03:12:22.995Z,102737.23
2024-01-26T03:15:00.992Z,102737.82
2024-01-26T03:17:37.014Z,102734.38
2024-01-26T03:20:14.699Z,102740.95
2024-01-26T03:22:47.958Z,102735.53
2024-01-26T03:25:19.567Z,102739.52
2024-01-26T03:27:50.200Z,102741.52
2024-01-26T03:30:23.459Z,102740.37
2024-01-26T03:32:54.936Z,102741.77
2024-01-26T03:35:28.790Z,102746.65
2024-01-26T03:38:03.725Z,102748.31
2024-01-26T03:40:35.492Z,102742.63
2024-01-26T03:43:05.704Z,102746.32
2024-01-26T03:45:39.035Z,102753.15
2024-01-26T03:48:07.416Z,102745.20
2024-01-26T03:50:41.436Z,102752.59
2024-01-26T03:53:13.441Z,102753.15
2024-01-26T03:55:46.233Z,102752.01
2024-01-26T03:58:19.813Z,102764.53
2024-01-26T04:00:50.929Z,102754.85
2024-01-26T04:03:27.988Z,102752.59
2024-01-26T04:06:15.151Z,102766.82
2024-01-26T04:08:47.945Z,102761.98
2024-01-26T04:11:19.869Z,102760.28
2024-01-26T04:13:54.056Z,102754.03
2024-01-26T04:16:28.994Z,102752.30
2024-01-26T04:19:03.177Z,102754.30
2024-01-26T04:21:37.055Z,102764.53
2024-01-26T04:24:08.590Z,102760.57
2024-01-26T04:26:41.859Z,102773.06
2024-01-26T04:29:10.399Z,102773.65
2024-01-26T04:31:44.620Z,102765.97
2024-01-26T04:34:17.871Z,102766.82
2024-01-26T04:36:57.180Z,102767.96
2024-01-26T04:39:29.979Z,102760.02
2024-01-26T04:42:03.113Z,102748.34
2024-01-26T04:44:42.409Z,102754.88
2024-01-26T04:47:15.239Z,102744.36
2024-01-26T04:49:47.220Z,102750.93
2024-01-26T04:52:20.203Z,102745.24
2024-01-26T04:54:54.031Z,102750.05
2024-01-26T04:57:28.114Z,102759.13
2024-01-26T04:59:56.177Z,102766.00
2024-01-26T05:02:29.038Z,102768.84
2024-01-26T05:05:01.341Z,102759.13
2024-01-26T05:07:38.570Z,102756.29
2024-01-26T05:10:07.846Z,102765.12
2024-01-26T05:12:42.752Z,102758.87
2024-01-26T05:15:16.653Z,102753.45
2024-01-26T05:17:48.567Z,102750.90
2024-01-26T05:20:16.718Z,102760.28
2024-01-26T05:22:48.582Z,102762.30
2024-01-26T05:25:16.714Z,102759.13
2024-01-26T05:27:47.890Z,102757.47
2024-01-26T05:30:26.948Z,102768.26
2024-01-26T05:32:58.034Z,102777.91
2024-01-26T05:35:38.970Z,102777.05
2024-01-26T05:38:12.822Z,102787.02
2024-01-26T05:40:46.235Z,102785.06
2024-01-26T05:43:16.785Z,102783.63
2024-01-26T05:45:44.934Z,102789.02
2024-01-26T05:48:13.296Z,102782.48
2024-01-26T05:50:47.900Z,102771.40
2024-01-26T05:53:21.696Z,102770.80
2024-01-26T05:55:49.788Z,102773.09
2024-01-26T05:58:19.295Z,102773.36
2024-01-26T06:00:55.095Z,102774.53
2024-01-26T06:03:37.424Z,102774.53
2024-01-26T06:06:08.404Z,102769.11
2024-01-26T06:08:36.577Z,102778.23
2024-01-26T06:11:09.402Z,102771.95
2024-01-26T06:13:42.862Z,102770.25
2024-01-26T06:16:14.941Z,102764.83
2024-01-26T06:18:49.101Z,102764.56
2024-01-26T06:21:21.311Z,102750.93
2024-01-26T06:23:49.507Z,102751.19
2024-01-26T06:26:23.323Z,102749.20
2024-01-26T06:28:58.560Z,102759.16
2024-01-26T06:31:29.938Z,102767.70
2024-01-26T06:34:05.325Z,102770.25
2024-01-26T06:36:35.703Z,102771.37
2024-01-26T06:39:09.603Z,102769.11
2024-01-26T06:41:43.707Z,102772.80
2024-01-26T06:44:16.554Z,102771.10
2024-01-26T06:46:47.497Z,102760.28
2024-01-26T06:49:18.287Z,102765.97
2024-01-26T06:51:49.682Z,102779.37
2024-01-26T06:54:21.436Z,102780.20
2024-01-26T06:56:49.669Z,102772.51
2024-01-26T06:59:21.031Z,102771.07
2024-01-26T07:02:00.734Z,102773.09
2024-01-26T07:04:34.570Z,102764.83
2024-01-26T07:07:08.301Z,102759.66
2024-01-26T07:09:36.706Z,102769.08
2024-01-26T07:12:07.974Z,102767.67
2024-01-26T07:14:36.357Z,102764.23
2024-01-26T07:17:18.895Z,102758.80
2024-01-26T07:19:48.664Z,102758.84
2024-01-26T07:22:16.907Z,102751.16
2024-01-26T07:24:47.746Z,102743.73
2024-01-26T07:27:16.013Z,102742.88
2024-01-26T07:29:44.275Z,102740.04
2024-01-26T07:32:14.897Z,102735.49
2024-01-26T07:34:46.033Z,102733.50
2024-01-26T07:37:18.812Z,102729.25
2024-01-26T07:42:42.162Z,102734.61
2024-01-26T07:45:10.908Z,102729.25
2024-01-26T07:47:42.715Z,102723.53
2024-01-26T07:50:13.680Z,102732.36
2024-01-26T07:52:45.738Z,102723.82
2024-01-26T07:55:16.882Z,102735.17
2024-01-26T07:57:50.766Z,102735.20
2024-01-26T08:00:24.714Z,102737.46
2024-01-26T08:02:56.872Z,102749.98
2024-01-26T08:05:30.815Z,102741.41
2024-01-26T08:08:02.700Z,102739.42
2024-01-26T08:10:34.137Z,102741.38
2024-01-26T08:13:05.348Z,102739.38
2024-01-26T08:15:37.837Z,102739.65
2024-01-26T08:18:14.047Z,102746.48
2024-01-26T08:21:11.195Z,102737.03
2024-01-26T08:24:02.696Z,102739.19
2024-01-26T08:26:53.093Z,102737.62
2024-01-26T08:29:31.885Z,102743.80
2024-01-26T08:32:02.862Z,102745.08
2024-01-26T08:34:36.484Z,102735.66
2024-01-26T08:37:07.689Z,102738.50
2024-01-26T08:39:39.091Z,102739.38
2024-01-26T08:42:07.647Z,102741.05
2024-01-26T08:44:39.836Z,102744.75
2024-01-26T08:47:08.463Z,102739.02
2024-01-26T08:49:39.954Z,102733.27
2024-01-26T08:52:14.953Z,102739.19
2024-01-26T08:54:43.026Z,102729.94
2024-01-26T08:57:20.013Z,102726.70
2024-01-26T08:59:53.371Z,102720.85
2024-01-26T09:02:27.911Z,102731.18
2024-01-26T09:05:09.047Z,102732.65
2024-01-26T09:07:37.206Z,102728.66
2024-01-26T09:10:10.217Z,102730.76
2024-01-26T09:12:39.657Z,102738.70
2024-01-26T09:15:11.821Z,102732.75
2024-01-26T09:17:52.519Z,102728.89
2024-01-26T09:23:01.702Z,102749.20
2024-01-26T09:25:34.726Z,102746.94
2024-01-26T09:28:02.725Z,102744.16
2024-01-26T09:30:35.488Z,102739.95
2024-01-26T09:33:08.558Z,102741.38
2024-01-26T09:35:39.531Z,102731.70
2024-01-26T09:38:32.881Z,102733.73
2024-01-26T09:41:06.493Z,102735.17
2024-01-26T09:43:44.171Z,102743.70
2024-01-26T09:46:16.872Z,102739.38
2024-01-26T09:48:51.929Z,102745.93
2024-01-26T09:51:28.986Z,102738.44
2024-01-26T09:54:02.448Z,102739.32
2024-01-26T09:56:40.294Z,102730.72
2024-01-26T09:59:09.944Z,102729.58
2024-01-26T10:01:46.916Z,102733.34
2024-01-26T10:04:20.024Z,102741.84
2024-01-26T10:06:58.296Z,102733.89
2024-01-26T10:09:32.673Z,102733.60
2024-01-26T10:12:00.787Z,102725.91
2024-01-26T10:14:29.078Z,102722.77
2024-01-26T10:17:03.641Z,102717.80
2024-01-26T10:19:34.592Z,102714.34
2024-01-26T10:22:03.336Z,102709.77
2024-01-26T10:24:36.059Z,102705.74
2024-01-26T10:27:11.042Z,102692.63
2024-01-26T10:29:46.178Z,102685.50
2024-01-26T10:32:19.341Z,102698.94
2024-01-26T10:34:47.993Z,102692.92
2024-01-26T10:37:18.787Z,102685.27
2024-01-26T10:39:54.924Z,102685.60
2024-01-26T10:42:34.960Z,102685.90
2024-01-26T10:45:03.845Z,102686.22
2024-01-26T10:47:35.882Z,102680.17
2024-01-26T10:50:09.053Z,102683.87
2024-01-26T10:52:40.571Z,102682.20
2024-01-26T10:55:14.751Z,102669.58
2024-01-26T10:57:50.880Z,102667.26
2024-01-26T11:00:19.499Z,102662.39
2024-01-26T11:02:51.879Z,102669.19
2024-01-26T11:05:25.092Z,102664.88
2024-01-26T11:07:56.849Z,102665.72
2024-01-26T11:10:31.203Z,102653.43
2024-01-26T11:13:09.033Z,102638.29
2024-01-26T11:15:44.719Z,102630.54
2024-01-26T11:18:28.998Z,102637.11
2024-01-26T11:21:04.075Z,102634.79
2024-01-26T11:23:49.147Z,102625.38
2024-01-26T11:26:22.561Z,102630.25
2024-01-26T11:28:55.517Z,102628.25
2024-01-26T11:31:36.286Z,102617.95
2024-01-26T11:34:04.750Z,102624.52
2024-01-26T11:36:42.322Z,102621.12
2024-01-26T11:39:19.528Z,102633.42
2024-01-26T11:41:52.443Z,102618.57
2024-01-26T11:44:27.981Z,102609.13
2024-01-26T11:46:57.144Z,102614.00
2024-01-26T11:49:28.567Z,102609.45
2024-01-26T11:52:06.905Z,102614.32
2024-01-26T11:54:39.544Z,102613.15
2024-01-26T11:57:13.515Z,102605.76
2024-01-26T11:59:51.690Z,102598.30
2024-01-26T12:02:22.659Z,102593.76
2024-01-26T12:05:06.467Z,102591.24
2024-01-26T12:07:38.813Z,102589.21
2024-01-26T12:10:15.419Z,102585.52
2024-01-26T12:12:52.055Z,102600.95
2024-01-26T12:15:20.473Z,102600.10
2024-01-26T12:17:59.953Z,102599.87
2024-01-26T12:20:35.450Z,102597.32
2024-01-26T12:23:18.648Z,102587.12
2024-01-26T12:25:46.995Z,102592.32
2024-01-26T12:28:23.309Z,102590.59
2024-01-26T12:30:52.864Z,102582.34
2024-01-26T12:33:24.033Z,102598.95
2024-01-26T12:35:58.937Z,102585.62
2024-01-26T12:38:32.733Z,102579.41
2024-01-26T12:41:04.143Z,102572.05
2024-01-26T12:43:42.325Z,102577.24
2024-01-26T12:46:13.547Z,102577.87
2024-01-26T12:48:46.582Z,102573.39
2024-01-26T12:51:18.584Z,102572.83
2024-01-26T12:53:50.982Z,102570.61
2024-01-26T12:56:23.975Z,102588.36
2024-01-26T12:58:56.903Z,102574.96
2024-01-26T13:01:25.284Z,102573.06
2024-01-26T13:03:59.563Z,102571.43
2024-01-26T13:06:33.885Z,102574.34
2024-01-26T13:09:09.285Z,102575.52
2024-01-26T13:11:42.884Z,102577.28
2024-01-26T13:14:18.936Z,102564.79
2024-01-26T13:16:52.995Z,102572.80
2024-01-26T13:19:44.224Z,102575.41
2024-01-26T13:22:17.665Z,102583.42
2024-01-26T13:24:50.812Z,102585.71
2024-01-26T13:27:24.626Z,102589.51
2024-01-26T13:29:59.808Z,102584.08
2024-01-26T13:32:32.280Z,102569.04
2024-01-26T13:35:02.260Z,102561.95
2024-01-26T13:37:35.164Z,102581.07
2024-01-26T13:40:07.393Z,102586.80
2024-01-26T13:42:35.678Z,102594.80
2024-01-26T13:45:15.866Z,102588.85
2024-01-26T13:47:57.236Z,102588.59
2024-01-26T13:50:47.115Z,102596.27
2024-01-26T13:53:24.795Z,102601.48
2024-01-26T13:56:01.536Z,102595.52
2024-01-26T13:58:39.981Z,102597.81
2024-01-26T14:03:50.599Z,102607.52
2024-01-26T14:06:34.720Z,102608.05
2024-01-26T14:09:08.517Z,102617.53
2024-01-26T14:11:42.501Z,102612.95
2024-01-26T14:14:16.462Z,102615.27
2024-01-26T14:16:53.133Z,102619.82
2024-01-26T14:19:24.334Z,102613.27
2024-01-26T14:21:54.875Z,102613.87
2024-01-26T14:24:23.191Z,102624.72
2024-01-26T14:27:05.759Z,102606.77
2024-01-26T14:29:36.925Z,102620.47
2024-01-26T14:32:10.898Z,102625.05
2024-01-26T14:34:41.917Z,102624.79
2024-01-26T14:37:18.438Z,102625.31
2024-01-26T14:40:07.703Z,102627.08
2024-01-26T14:42:35.999Z,102637.34
2024-01-26T14:45:15.199Z,102633.05
2024-01-26T14:47:49.544Z,102628.25
2024-01-26T14:50:28.047Z,102639.92
2024-01-26T14:53:02.172Z,102642.80
2024-01-26T14:55:37.264Z,102645.65
2024-01-26T14:58:06.235Z,102647.09
2024-01-26T15:00:40.987Z,102650.48
2024-01-26T15:03:22.354Z,102647.09
2024-01-26T15:05:54.234Z,102643.65
2024-01-26T15:08:25.114Z,102642.21
2024-01-26T15:10:59.607Z,102653.04
2024-01-26T15:13:31.129Z,102653.95
2024-01-26T15:15:59.466Z,102652.80
2024-01-26T15:18:35.216Z,102654.80
2024-01-26T15:21:22.584Z,102657.65
2024-01-26T15:23:52.990Z,102661.34
2024-01-26T15:26:21.783Z,102651.70
2024-01-26T15:28:53.399Z,102663.11
2024-01-26T15:31:29.258Z,102661.70
2024-01-26T15:34:02.280Z,102666.54
2024-01-26T15:36:41.211Z,102658.01
2024-01-26T15:39:11.659Z,102663.73
2024-01-26T15:41:46.116Z,102673.99
2024-01-26T15:44:20.868Z,102677.72
2024-01-26T15:46:54.570Z,102673.73
2024-01-26T15:49:31.379Z,102668.34
2024-01-26T15:52:02.503Z,102670.04
2024-01-26T15:54:37.358Z,102670.34
2024-01-26T15:57:10.226Z,102663.23
2024-01-26T15:59:45.692Z,102667.23
2024-01-26T16:02:24.488Z,102653.52
2024-01-26T16:04:57.713Z,102664.91
2024-01-26T16:07:41.835Z,102661.54
2024-01-26T16:10:20.161Z,102665.82
2024-01-26T16:12:55.427Z,102681.52
2024-01-26T16:15:29.748Z,102673.54
2024-01-26T16:18:11.364Z,102690.08
2024-01-26T16:20:52.519Z,102687.83
2024-01-26T16:23:31.236Z,102688.97
2024-01-26T16:26:08.205Z,102698.98
2024-01-26T16:28:41.464Z,102707.54
2024-01-26T16:31:12.859Z,102704.40
2024-01-26T16:33:54.169Z,102703.26
2024-01-26T16:36:25.015Z,102711.23
2024-01-26T16:38:58.012Z,102725.23
2024-01-26T16:41:30.963Z,102735.20
2024-01-26T16:44:06.823Z,102740.07
2024-01-26T16:46:45.096Z,102749.20
2024-01-26T16:49:16.027Z,102746.61
2024-01-26T16:51:44.171Z,102747.46
2024-01-26T16:54:22.116Z,102752.63
2024-01-26T16:56:55.556Z,102748.61
2024-01-26T16:59:34.859Z,102754.03
2024-01-26T17:02:06.181Z,102768.55
2024-01-26T17:04:40.568Z,102758.58
2024-01-26T17:07:16.506Z,102763.71
2024-01-26T17:09:52.889Z,102774.53
2024-01-26T17:12:42.183Z,102770.80
2024-01-26T17:15:14.939Z,102785.06
2024-01-26T17:17:47.878Z,102784.21
2024-01-26T17:20:20.794Z,102785.36
2024-01-26T17:22:53.553Z,102809.00
2024-01-26T17:25:24.413Z,102795.33
2024-01-26T17:27:59.165Z,102799.58
2024-01-26T17:30:33.225Z,102793.04
2024-01-26T17:33:19.909Z,102804.12
2024-01-26T17:35:48.214Z,102799.84
2024-01-26T17:38:16.365Z,102823.52
2024-01-26T17:40:48.284Z,102819.52
2024-01-26T17:43:25.140Z,102839.77
2024-01-26T17:46:01.802Z,102832.05
2024-01-26T17:48:35.740Z,102843.46
2024-01-26T17:54:01.084Z,102856.54
2024-01-26T17:56:32.173Z,102871.64
2024-01-26T17:59:10.249Z,102867.36
2024-01-26T18:01:39.876Z,102867.95
2024-01-26T18:04:14.038Z,102874.81
2024-01-26T18:06:52.968Z,102878.51
2024-01-26T18:09:21.707Z,102879.95
2024-01-26T18:11:53.303Z,102888.19
2024-01-26T18:14:24.163Z,102884.20
2024-01-26T18:16:52.254Z,102884.79
2024-01-26T18:19:26.509Z,102887.08
2024-01-26T18:21:56.064Z,102887.63
2024-01-26T18:24:27.480Z,102886.23
2024-01-26T18:26:55.602Z,102915.00
2024-01-26T18:29:23.865Z,102910.42
2024-01-26T18:31:52.346Z,102916.44
2024-01-26T18:34:20.657Z,102931.54
2024-01-26T18:36:49.028Z,102942.37
2024-01-26T18:39:24.208Z,102940.37
2024-01-26T18:41:57.865Z,102941.77
2024-01-26T18:44:31.064Z,102952.34
2024-01-26T18:47:04.957Z,102960.02
2024-01-26T18:49:45.516Z,102964.86
2024-01-26T18:52:20.924Z,102953.45
2024-01-26T18:54:55.477Z,102963.16
2024-01-26T18:57:23.583Z,102981.14
2024-01-26T18:59:57.907Z,102990.52
2024-01-26T19:02:26.604Z,102987.09
2024-01-26T19:05:00.705Z,102983.66
2024-01-26T19:07:33.541Z,102991.12
2024-01-26T19:10:01.813Z,102988.53
2024-01-26T19:12:38.891Z,102997.36
2024-01-26T19:15:10.911Z,102995.34
2024-01-26T19:17:39.299Z,103006.48
2024-01-26T19:20:18.356Z,103015.60
2024-01-26T19:22:50.196Z,103016.75
2024-01-26T19:25:30.472Z,103015.60
2024-01-26T19:28:00.070Z,103005.05
2024-01-26T19:30:31.729Z,103013.31
2024-01-26T19:33:05.541Z,103008.77
2024-01-26T19:35:38.896Z,103026.13
2024-01-26T19:38:06.961Z,103024.14
2024-01-26T19:40:37.388Z,103033.85
2024-01-26T19:43:08.559Z,103032.15
2024-01-26T19:45:39.459Z,103040.72
2024-01-26T19:48:17.571Z,103049.55
2024-01-26T19:50:50.269Z,103046.99
2024-01-26T19:53:19.070Z,103059.25
2024-01-26T19:55:50.151Z,103059.58
2024-01-26T19:58:19.896Z,103044.41
2024-01-26T20:00:51.397Z,103044.73
2024-01-26T20:03:19.497Z,103057.00
2024-01-26T20:05:51.683Z,103052.42
2024-01-26T20:08:24.532Z,103063.27
2024-01-26T20:10:57.879Z,103060.43
2024-01-26T20:13:26.068Z,103075.83
2024-01-26T20:15:54.294Z,103072.40
2024-01-26T20:18:23.865Z,103075.57
2024-01-26T20:20:55.085Z,103069.84
2024-01-26T20:23:26.746Z,103072.13
2024-01-26T20:25:56.236Z,103074.69
2024-01-26T20:28:49.989Z,103075.83
2024-01-26T20:31:20.946Z,103072.98
2024-01-26T20:34:04.493Z,103079.82
2024-01-26T20:36:38.277Z,103088.65
2024-01-26T20:39:06.630Z,103087.24
2024-01-26T20:41:39.744Z,103094.41
2024-01-26T20:44:07.992Z,103104.63
2024-01-26T20:46:36.119Z,103099.50
2024-01-26T20:49:08.439Z,103108.37
2024-01-26T20:51:40.495Z,103112.62
2024-01-26T20:54:29.000Z,103107.48
2024-01-26T20:57:03.181Z,103109.21
2024-01-26T20:59:34.239Z,103106.63
2024-01-26T21:02:03.877Z,103116.90
2024-01-26T21:04:38.546Z,103123.73
2024-01-26T21:07:32.016Z,103126.87
2024-01-26T21:10:00.166Z,103121.73
2024-01-26T21:12:36.438Z,103124.55
2024-01-26T21:15:08.406Z,103121.15
2024-01-26T21:17:49.497Z,103120.56
2024-01-26T21:20:31.975Z,103125.37
2024-01-26T21:23:04.676Z,103129.09
2024-01-26T21:25:38.609Z,103126.80
2024-01-26T21:28:11.935Z,103120.52
2024-01-26T21:30:53.357Z,103127.88
2024-01-26T21:33:33.207Z,103127.88
2024-01-26T21:36:03.751Z,103135.86
2024-01-26T21:38:32.102Z,103135.24
2024-01-26T21:41:07.045Z,103140.38
2024-01-26T21:43:40.867Z,103138.64
2024-01-26T21:46:14.005Z,103138.64
2024-01-26T21:48:43.053Z,103149.98
2024-01-26T21:51:17.271Z,103148.55
2024-01-26T21:53:45.637Z,103146.26
2024-01-26T21:56:24.537Z,103141.71
2024-01-26T21:58:57.522Z,103143.12
2024-01-26T22:01:30.288Z,103147.11
2024-01-26T22:04:05.889Z,103149.92
2024-01-26T22:06:36.712Z,103149.04
2024-01-26T22:09:10.270Z,103144.76
2024-01-26T22:11:38.540Z,103151.00
2024-01-26T22:14:19.107Z,103156.98
2024-01-26T22:16:53.367Z,103150.41
2024-01-26T22:19:26.330Z,103163.78
2024-01-26T22:22:08.521Z,103157.77
2024-01-26T22:24:41.643Z,103158.06
2024-01-26T22:27:14.362Z,103152.63
2024-01-26T22:29:42.757Z,103168.00
2024-01-26T22:32:11.410Z,103160.02
2024-01-26T22:34:47.457Z,103161.46
2024-01-26T22:37:15.744Z,103162.57
2024-01-26T22:39:44.151Z,103166.83
2024-01-26T22:42:12.301Z,103160.02
2024-01-26T22:44:45.249Z,103167.71
2024-01-26T22:47:13.619Z,103159.44
2024-01-26T22:49:47.765Z,103165.95
2024-01-26T22:52:21.526Z,103167.91
2024-01-26T22:54:49.519Z,103178.73
2024-01-26T22:57:18.415Z,103183.53
2024-01-26T22:59:51.408Z,103176.99
2024-01-26T23:02:24.495Z,103170.98
2024-01-26T23:04:57.465Z,103177.48
2024-01-26T23:07:31.241Z,103186.02
2024-01-26T23:10:02.108Z,103180.33
2024-01-26T23:12:35.844Z,103183.17
2024-01-26T23:15:08.917Z,103192.85
2024-01-26T23:17:53.661Z,103193.96
2024-01-26T23:20:26.431Z,103197.92
2024-01-26T23:22:54.521Z,103196.22
2024-01-26T23:25:25.357Z,103181.41
2024-01-26T23:27:58.171Z,103181.70
2024-01-26T23:30:31.469Z,103174.02
2024-01-26T23:32:59.606Z,103189.35
2024-01-26T23:35:28.905Z,103181.96
2024-01-26T23:37:56.972Z,103191.64
2024-01-26T23:40:25.094Z,103182.26
2024-01-26T23:42:57.838Z,103196.48
2024-01-26T23:45:57.480Z,103197.33
2024-01-26T23:48:35.416Z,103198.41
2024-01-26T23:51:06.275Z,103195.01
2024-01-26T23:53:34.420Z,103192.16
2024-01-26T23:56:02.616Z,103198.70
2024-01-26T23:58:33.348Z,103198.41
